createdAt,value
2017-12-02T00:00:27.538Z,5.94
2017-12-02T00:01:27.549Z,5.9
2017-12-02T00:02:27.560Z,5.9
2017-12-02T00:03:27.843Z,5.93
2017-12-02T00:04:27.581Z,5.91
2017-12-02T00:05:27.594Z,6.01
2017-12-02T00:06:27.343Z,5.86
2017-12-02T00:07:27.887Z,5.91
2017-12-02T00:08:27.629Z,5.93
2017-12-02T00:09:27.639Z,5.8
2017-12-02T00:10:27.652Z,5.97
2017-12-02T00:11:27.928Z,5.93
2017-12-02T00:12:27.936Z,5.99
2017-12-02T00:13:27.960Z,5.91
2017-12-02T00:14:27.697Z,5.89
2017-12-02T00:15:27.977Z,5.93
2017-12-02T00:16:27.986Z,5.89
2017-12-02T00:17:27.992Z,5.98
2017-12-02T00:18:27.473Z,5.89
2017-12-02T00:19:28.014Z,5.86
2017-12-02T00:20:27.764Z,5.87
2017-12-02T00:21:28.039Z,5.9
2017-12-02T00:22:28.047Z,5.9
2017-12-02T00:23:28.173Z,5.93
2017-12-02T00:24:27.538Z,5.89
2017-12-02T00:25:28.083Z,5.89
2017-12-02T00:26:27.834Z,5.86
2017-12-02T00:27:28.109Z,5.9
2017-12-02T00:28:28.125Z,5.87
2017-12-02T00:29:28.122Z,5.87
2017-12-02T00:30:28.140Z,5.87
2017-12-02T00:31:27.892Z,5.89
2017-12-02T00:32:28.164Z,5.83
2017-12-02T00:33:27.901Z,5.91
2017-12-02T00:34:28.186Z,5.84
2017-12-02T00:35:27.985Z,5.9
2017-12-02T00:36:27.942Z,5.86
2017-12-02T00:37:28.228Z,5.86
2017-12-02T00:38:28.233Z,5.86
2017-12-02T00:39:28.241Z,5.82
2017-12-02T00:40:28.250Z,5.86
2017-12-02T00:41:28.260Z,5.86
2017-12-02T00:42:28.010Z,5.84
2017-12-02T00:43:28.015Z,5.89
2017-12-02T00:44:28.289Z,5.86
2017-12-02T00:45:28.038Z,5.86
2017-12-02T00:46:28.334Z,5.9
2017-12-02T00:47:28.326Z,5.82
2017-12-02T00:48:28.336Z,5.9
2017-12-02T00:49:28.098Z,5.89
2017-12-02T00:50:28.358Z,5.87
2017-12-02T00:51:28.101Z,5.87
2017-12-02T00:52:28.112Z,5.87
2017-12-02T00:53:28.130Z,5.84
2017-12-02T00:54:28.408Z,5.84
2017-12-02T00:55:28.417Z,5.86
2017-12-02T00:56:28.168Z,5.87
2017-12-02T00:57:28.181Z,5.89
2017-12-02T00:58:28.452Z,5.91
2017-12-02T00:59:28.195Z,5.87
2017-12-02T01:00:28.215Z,5.9
2017-12-02T01:01:28.218Z,5.73
2017-12-02T01:02:28.231Z,5.86
2017-12-02T01:03:28.245Z,5.9
2017-12-02T01:04:28.517Z,5.86
2017-12-02T01:05:28.522Z,5.82
2017-12-02T01:06:28.539Z,5.82
2017-12-02T01:07:28.550Z,5.87
2017-12-02T01:08:28.565Z,5.84
2017-12-02T01:09:28.309Z,5.87
2017-12-02T01:10:28.321Z,5.86
2017-12-02T01:11:28.597Z,5.91
2017-12-02T01:12:28.339Z,5.87
2017-12-02T01:13:28.350Z,5.9
2017-12-02T01:14:28.359Z,5.89
2017-12-02T01:15:28.642Z,5.87
2017-12-02T01:16:28.385Z,5.9
2017-12-02T01:17:28.400Z,5.93
2017-12-02T01:18:28.414Z,5.89
2017-12-02T01:19:28.149Z,5.84
2017-12-02T01:20:28.701Z,5.9
2017-12-02T01:21:28.171Z,5.87
2017-12-02T01:22:28.715Z,5.86
2017-12-02T01:23:28.457Z,5.87
2017-12-02T01:24:28.741Z,5.82
2017-12-02T01:25:28.751Z,5.84
2017-12-02T01:26:28.763Z,5.86
2017-12-02T01:27:28.767Z,5.9
2017-12-02T01:28:28.787Z,5.83
2017-12-02T01:29:28.532Z,5.86
2017-12-02T01:30:28.802Z,5.87
2017-12-02T01:31:28.819Z,5.84
2017-12-02T01:32:28.912Z,5.87
2017-12-02T01:33:28.569Z,5.84
2017-12-02T01:34:28.862Z,5.89
2017-12-02T01:35:28.592Z,5.86
2017-12-02T01:36:28.873Z,5.89
2017-12-02T01:37:28.882Z,5.93
2017-12-02T01:38:28.628Z,5.9
2017-12-02T01:39:28.632Z,5.89
2017-12-02T01:40:30.810Z,5.83
2017-12-02T01:41:29.147Z,5.9
2017-12-02T01:42:28.950Z,5.9
2017-12-02T01:43:28.956Z,5.82
2017-12-02T01:44:28.697Z,5.86
2017-12-02T01:45:28.441Z,5.84
2017-12-02T01:46:28.455Z,5.83
2017-12-02T01:47:28.732Z,5.86
2017-12-02T01:48:29.016Z,5.9
2017-12-02T01:49:28.759Z,5.84
2017-12-02T01:50:28.772Z,5.9
2017-12-02T01:51:28.778Z,5.83
2017-12-02T01:52:29.062Z,5.86
2017-12-02T01:53:29.070Z,5.9
2017-12-02T01:54:28.549Z,5.87
2017-12-02T01:55:28.824Z,5.84
2017-12-02T01:56:29.102Z,5.82
2017-12-02T01:57:29.119Z,5.82
2017-12-02T01:58:29.122Z,5.91
2017-12-02T01:59:29.140Z,5.89
2017-12-02T02:00:28.879Z,5.82
2017-12-02T02:01:28.890Z,5.8
2017-12-02T02:02:29.225Z,5.87
2017-12-02T02:03:28.916Z,5.84
2017-12-02T02:04:28.659Z,5.87
2017-12-02T02:05:29.213Z,5.86
2017-12-02T02:06:29.210Z,5.82
2017-12-02T02:07:29.226Z,5.86
2017-12-02T02:08:28.972Z,5.8
2017-12-02T02:09:28.977Z,5.89
2017-12-02T02:10:29.258Z,5.9
2017-12-02T02:11:29.220Z,5.86
2017-12-02T02:12:29.012Z,5.9
2017-12-02T02:13:29.285Z,5.89
2017-12-02T02:14:29.300Z,5.87
2017-12-02T02:15:29.307Z,5.82
2017-12-02T02:16:29.058Z,5.89
2017-12-02T02:17:29.070Z,5.87
2017-12-02T02:18:29.348Z,5.83
2017-12-02T02:19:28.823Z,5.91
2017-12-02T02:20:29.369Z,5.84
2017-12-02T02:21:29.115Z,5.9
2017-12-02T02:22:29.388Z,5.87
2017-12-02T02:23:29.138Z,5.9
2017-12-02T02:24:29.416Z,5.84
2017-12-02T02:25:29.427Z,5.72
2017-12-02T02:26:29.435Z,5.87
2017-12-02T02:27:28.911Z,5.84
2017-12-02T02:28:29.453Z,5.84
2017-12-02T02:29:29.470Z,5.86
2017-12-02T02:30:29.482Z,5.82
2017-12-02T02:31:29.929Z,5.82
2017-12-02T02:32:29.501Z,5.87
2017-12-02T02:33:29.243Z,5.82
2017-12-02T02:34:29.530Z,5.87
2017-12-02T02:35:29.575Z,5.83
2017-12-02T02:36:29.283Z,5.86
2017-12-02T02:37:29.291Z,5.84
2017-12-02T02:38:29.632Z,5.84
2017-12-02T02:39:29.632Z,5.84
2017-12-02T02:40:29.323Z,5.89
2017-12-02T02:41:29.330Z,5.87
2017-12-02T02:42:29.613Z,5.73
2017-12-02T02:43:29.353Z,5.82
2017-12-02T02:44:29.645Z,5.86
2017-12-02T02:45:29.377Z,5.73
2017-12-02T02:46:29.655Z,5.82
2017-12-02T02:47:29.396Z,5.86
2017-12-02T02:48:29.416Z,5.87
2017-12-02T02:49:29.421Z,5.9
2017-12-02T02:50:29.430Z,5.82
2017-12-02T02:51:29.437Z,5.84
2017-12-02T02:52:29.723Z,5.72
2017-12-02T02:53:29.197Z,5.87
2017-12-02T02:54:29.750Z,5.87
2017-12-02T02:55:29.750Z,5.83
2017-12-02T02:56:29.493Z,5.8
2017-12-02T02:57:29.773Z,5.87
2017-12-02T02:58:29.785Z,5.8
2017-12-02T02:59:29.525Z,5.86
2017-12-02T03:00:29.807Z,5.72
2017-12-02T03:01:29.826Z,5.87
2017-12-02T03:02:29.559Z,5.82
2017-12-02T03:03:29.841Z,5.73
2017-12-02T03:04:29.852Z,5.84
2017-12-02T03:05:29.871Z,5.86
2017-12-02T03:06:29.878Z,5.76
2017-12-02T03:07:29.885Z,5.79
2017-12-02T03:08:29.899Z,5.86
2017-12-02T03:09:29.910Z,5.8
2017-12-02T03:10:29.654Z,5.84
2017-12-02T03:11:29.978Z,5.82
2017-12-02T03:12:29.933Z,5.83
2017-12-02T03:13:29.956Z,5.8
2017-12-02T03:14:29.959Z,5.79
2017-12-02T03:15:29.711Z,5.79
2017-12-02T03:16:29.717Z,5.83
2017-12-02T03:17:29.729Z,5.8
2017-12-02T03:18:30.007Z,5.84
2017-12-02T03:19:29.484Z,5.8
2017-12-02T03:20:30.027Z,5.84
2017-12-02T03:21:29.771Z,5.83
2017-12-02T03:22:30.054Z,5.8
2017-12-02T03:23:29.798Z,5.8
2017-12-02T03:24:30.072Z,5.82
2017-12-02T03:25:30.078Z,5.83
2017-12-02T03:26:29.826Z,5.79
2017-12-02T03:27:29.831Z,5.79
2017-12-02T03:28:29.845Z,5.82
2017-12-02T03:29:30.127Z,5.8
2017-12-02T03:30:29.875Z,5.79
2017-12-02T03:31:30.206Z,5.76
2017-12-02T03:32:29.892Z,5.73
2017-12-02T03:33:30.236Z,5.76
2017-12-02T03:34:29.920Z,5.83
2017-12-02T03:35:30.198Z,5.75
2017-12-02T03:36:30.211Z,5.73
2017-12-02T03:37:29.940Z,5.76
2017-12-02T03:38:30.223Z,5.79
2017-12-02T03:39:30.257Z,5.8
2017-12-02T03:40:30.252Z,5.76
2017-12-02T03:41:29.992Z,5.71
2017-12-02T03:42:30.197Z,5.79
2017-12-02T03:43:30.282Z,5.73
2017-12-02T03:44:30.289Z,5.79
2017-12-02T03:45:30.042Z,5.75
2017-12-02T03:46:30.053Z,5.82
2017-12-02T03:47:30.333Z,5.8
2017-12-02T03:48:30.071Z,5.73
2017-12-02T03:49:30.073Z,5.73
2017-12-02T03:50:30.362Z,5.71
2017-12-02T03:51:31.569Z,5.68
2017-12-02T03:52:30.116Z,5.68
2017-12-02T03:53:30.126Z,5.69
2017-12-02T03:54:30.400Z,5.68
2017-12-02T03:55:30.417Z,5.72
2017-12-02T03:56:30.424Z,5.75
2017-12-02T03:57:30.165Z,5.68
2017-12-02T03:58:30.445Z,5.76
2017-12-02T03:59:30.468Z,5.68
2017-12-02T04:00:30.459Z,5.76
2017-12-02T04:01:30.472Z,5.75
2017-12-02T04:02:30.490Z,5.8
2017-12-02T04:03:30.225Z,5.76
2017-12-02T04:04:30.519Z,5.72
2017-12-02T04:05:30.521Z,5.73
2017-12-02T04:06:30.277Z,5.73
2017-12-02T04:07:30.544Z,5.75
2017-12-02T04:08:30.552Z,5.73
2017-12-02T04:09:30.559Z,5.72
2017-12-02T04:10:30.583Z,5.68
2017-12-02T04:11:30.372Z,5.76
2017-12-02T04:12:30.633Z,5.76
2017-12-02T04:13:30.608Z,5.71
2017-12-02T04:14:30.614Z,5.71
2017-12-02T04:15:30.638Z,5.69
2017-12-02T04:16:30.646Z,5.69
2017-12-02T04:17:30.115Z,5.66
2017-12-02T04:18:30.660Z,5.75
2017-12-02T04:19:30.673Z,5.75
2017-12-02T04:20:30.152Z,5.75
2017-12-02T04:21:45.317Z,5.69
2017-12-02T04:22:30.439Z,5.72
2017-12-02T04:23:30.448Z,5.64
2017-12-02T04:24:30.460Z,5.71
2017-12-02T04:25:30.504Z,5.69
2017-12-02T04:26:30.742Z,5.72
2017-12-02T04:27:30.496Z,5.69
2017-12-02T04:28:30.780Z,5.64
2017-12-02T04:29:30.514Z,5.73
2017-12-02T04:30:30.613Z,5.73
2017-12-02T04:31:30.865Z,5.76
2017-12-02T04:32:30.827Z,5.66
2017-12-02T04:33:30.823Z,5.66
2017-12-02T04:34:30.834Z,5.64
2017-12-02T04:35:30.317Z,5.69
2017-12-02T04:36:30.599Z,5.66
2017-12-02T04:37:30.606Z,5.66
2017-12-02T04:38:30.616Z,5.69
2017-12-02T04:39:30.894Z,5.66
2017-12-02T04:40:30.637Z,5.75
2017-12-02T04:41:45.266Z,5.66
2017-12-02T04:42:30.930Z,5.69
2017-12-02T04:43:30.668Z,5.64
2017-12-02T04:44:30.944Z,5.64
2017-12-02T04:45:30.685Z,5.66
2017-12-02T04:46:30.970Z,5.73
2017-12-02T04:47:30.979Z,5.69
2017-12-02T04:48:30.723Z,5.59
2017-12-02T04:49:31.004Z,5.59
2017-12-02T04:50:30.745Z,5.75
2017-12-02T04:51:30.493Z,5.64
2017-12-02T04:52:31.043Z,5.71
2017-12-02T04:53:31.045Z,5.65
2017-12-02T04:54:31.115Z,5.65
2017-12-02T04:55:31.200Z,5.65
2017-12-02T04:56:30.812Z,5.72
2017-12-02T04:57:31.087Z,5.62
2017-12-02T04:58:30.831Z,5.66
2017-12-02T04:59:31.116Z,5.69
2017-12-02T05:00:31.129Z,5.68
2017-12-02T05:01:30.870Z,5.65
2017-12-02T05:02:31.143Z,5.64
2017-12-02T05:03:30.947Z,5.65
2017-12-02T05:04:31.168Z,5.68
2017-12-02T05:05:31.165Z,5.66
2017-12-02T05:06:31.184Z,5.65
2017-12-02T05:07:30.923Z,5.65
2017-12-02T05:08:31.204Z,5.72
2017-12-02T05:09:30.953Z,5.68
2017-12-02T05:10:31.229Z,5.65
2017-12-02T05:11:30.980Z,5.64
2017-12-02T05:12:31.266Z,5.65
2017-12-02T05:13:31.262Z,5.65
2017-12-02T05:14:31.271Z,5.73
2017-12-02T05:15:31.018Z,5.65
2017-12-02T05:16:31.299Z,5.69
2017-12-02T05:17:31.046Z,5.69
2017-12-02T05:18:31.048Z,5.69
2017-12-02T05:19:31.323Z,5.68
2017-12-02T05:20:31.336Z,5.66
2017-12-02T05:21:31.345Z,5.71
2017-12-02T05:22:31.356Z,5.65
2017-12-02T05:23:31.376Z,5.65
2017-12-02T05:24:31.378Z,5.66
2017-12-02T05:25:31.394Z,5.62
2017-12-02T05:26:31.190Z,5.64
2017-12-02T05:27:31.150Z,5.68
2017-12-02T05:28:31.414Z,5.61
2017-12-02T05:29:31.169Z,5.64
2017-12-02T05:30:30.913Z,5.65
2017-12-02T05:31:31.460Z,5.69
2017-12-02T05:32:31.203Z,5.68
2017-12-02T05:33:31.219Z,5.66
2017-12-02T05:34:31.497Z,5.68
2017-12-02T05:35:31.499Z,5.65
2017-12-02T05:36:31.514Z,5.68
2017-12-02T05:37:31.524Z,5.57
2017-12-02T05:38:31.304Z,5.65
2017-12-02T05:39:31.544Z,5.56
2017-12-02T05:40:31.303Z,5.68
2017-12-02T05:41:31.326Z,5.56
2017-12-02T05:42:31.317Z,5.71
2017-12-02T05:43:31.593Z,5.72
2017-12-02T05:44:31.612Z,5.72
2017-12-02T05:45:31.347Z,5.64
2017-12-02T05:46:31.614Z,5.62
2017-12-02T05:47:31.364Z,5.66
2017-12-02T05:48:31.371Z,5.69
2017-12-02T05:49:31.668Z,5.68
2017-12-02T05:50:31.656Z,5.71
2017-12-02T05:51:31.678Z,5.65
2017-12-02T05:52:31.150Z,5.64
2017-12-02T05:53:31.740Z,5.71
2017-12-02T05:54:31.176Z,5.72
2017-12-02T05:55:31.721Z,5.69
2017-12-02T05:56:31.460Z,5.64
2017-12-02T05:57:31.743Z,5.57
2017-12-02T05:58:31.754Z,5.62
2017-12-02T05:59:31.764Z,5.64
2017-12-02T06:00:31.771Z,5.64
2017-12-02T06:01:33.162Z,5.68
2017-12-02T06:02:31.808Z,5.71
2017-12-02T06:03:31.535Z,5.65
2017-12-02T06:04:31.548Z,5.62
2017-12-02T06:05:31.566Z,5.65
2017-12-02T06:06:31.855Z,5.68
2017-12-02T06:07:31.907Z,5.69
2017-12-02T06:08:31.850Z,5.61
2017-12-02T06:09:31.601Z,5.72
2017-12-02T06:10:31.888Z,5.64
2017-12-02T06:11:31.892Z,5.66
2017-12-02T06:12:31.908Z,5.68
2017-12-02T06:13:31.911Z,5.61
2017-12-02T06:14:31.932Z,5.66
2017-12-02T06:15:31.932Z,5.71
2017-12-02T06:16:31.937Z,5.72
2017-12-02T06:17:31.976Z,5.71
2017-12-02T06:18:31.699Z,5.66
2017-12-02T06:19:31.977Z,5.65
2017-12-02T06:20:32.044Z,5.65
2017-12-02T06:21:31.750Z,5.65
2017-12-02T06:22:31.744Z,5.65
2017-12-02T06:23:32.024Z,5.66
2017-12-02T06:24:32.031Z,5.69
2017-12-02T06:25:31.790Z,5.71
2017-12-02T06:26:31.788Z,5.64
2017-12-02T06:27:31.810Z,5.65
2017-12-02T06:28:32.074Z,5.61
2017-12-02T06:29:32.089Z,5.64
2017-12-02T06:30:32.118Z,5.71
2017-12-02T06:31:32.104Z,5.65
2017-12-02T06:32:32.132Z,5.65
2017-12-02T06:33:32.138Z,5.69
2017-12-02T06:34:32.142Z,5.64
2017-12-02T06:35:31.891Z,5.64
2017-12-02T06:36:31.898Z,5.68
2017-12-02T06:37:32.179Z,5.68
2017-12-02T06:38:32.182Z,5.73
2017-12-02T06:39:32.240Z,5.69
2017-12-02T06:40:32.202Z,5.66
2017-12-02T06:41:32.214Z,5.65
2017-12-02T06:42:32.223Z,5.72
2017-12-02T06:43:32.239Z,5.66
2017-12-02T06:44:32.244Z,5.64
2017-12-02T06:45:32.261Z,5.65
2017-12-02T06:46:31.999Z,5.62
2017-12-02T06:47:32.009Z,5.64
2017-12-02T06:48:32.290Z,5.69
2017-12-02T06:49:32.237Z,5.71
2017-12-02T06:50:32.310Z,5.64
2017-12-02T06:51:32.320Z,5.64
2017-12-02T06:52:32.065Z,5.66
2017-12-02T06:53:32.080Z,5.56
2017-12-02T06:54:32.360Z,5.68
2017-12-02T06:55:32.367Z,5.65
2017-12-02T06:56:32.374Z,5.68
2017-12-02T06:57:32.390Z,5.62
2017-12-02T06:58:32.132Z,5.64
2017-12-02T06:59:32.419Z,5.72
2017-12-02T07:00:32.425Z,5.64
2017-12-02T07:01:32.430Z,5.62
2017-12-02T07:02:32.439Z,5.69
2017-12-02T07:03:31.922Z,5.69
2017-12-02T07:04:32.464Z,5.71
2017-12-02T07:05:32.475Z,5.66
2017-12-02T07:06:32.221Z,5.64
2017-12-02T07:07:32.500Z,5.64
2017-12-02T07:08:32.240Z,5.69
2017-12-02T07:09:32.521Z,5.68
2017-12-02T07:10:32.597Z,5.66
2017-12-02T07:11:32.269Z,5.65
2017-12-02T07:12:32.551Z,5.65
2017-12-02T07:13:32.560Z,5.66
2017-12-02T07:14:32.302Z,5.64
2017-12-02T07:15:32.306Z,5.71
2017-12-02T07:16:32.588Z,5.65
2017-12-02T07:17:32.611Z,5.65
2017-12-02T07:18:32.353Z,5.68
2017-12-02T07:19:32.628Z,5.64
2017-12-02T07:20:32.647Z,5.72
2017-12-02T07:21:32.650Z,5.64
2017-12-02T07:22:32.425Z,5.66
2017-12-02T07:23:32.669Z,5.64
2017-12-02T07:24:32.143Z,5.66
2017-12-02T07:25:32.689Z,5.65
2017-12-02T07:26:32.699Z,5.65
2017-12-02T07:27:32.446Z,5.64
2017-12-02T07:28:32.463Z,5.62
2017-12-02T07:29:32.727Z,5.69
2017-12-02T07:30:32.475Z,5.72
2017-12-02T07:31:32.488Z,5.71
2017-12-02T07:32:32.227Z,5.72
2017-12-02T07:33:32.511Z,5.71
2017-12-02T07:34:32.789Z,5.66
2017-12-02T07:35:32.531Z,5.68
2017-12-02T07:36:32.807Z,5.69
2017-12-02T07:37:32.557Z,5.75
2017-12-02T07:38:32.830Z,5.8
2017-12-02T07:39:32.844Z,5.75
2017-12-02T07:40:32.862Z,5.8
2017-12-02T07:41:32.868Z,5.79
2017-12-02T07:42:32.610Z,5.76
2017-12-02T07:43:32.894Z,5.8
2017-12-02T07:44:32.904Z,5.79
2017-12-02T07:45:32.966Z,5.83
2017-12-02T07:46:32.649Z,5.86
2017-12-02T07:47:32.932Z,5.84
2017-12-02T07:48:32.935Z,5.84
2017-12-02T07:49:32.414Z,5.86
2017-12-02T07:50:32.961Z,5.86
2017-12-02T07:51:32.437Z,5.87
2017-12-02T07:52:32.981Z,5.91
2017-12-02T07:53:32.730Z,5.89
2017-12-02T07:54:32.738Z,5.98
2017-12-02T07:55:32.749Z,5.98
2017-12-02T07:56:33.031Z,5.91
2017-12-02T07:57:33.042Z,5.94
2017-12-02T07:58:33.050Z,5.97
2017-12-02T07:59:33.055Z,5.94
2017-12-02T08:00:32.803Z,6.02
2017-12-02T08:01:33.087Z,6.01
2017-12-02T08:02:33.096Z,6.04
2017-12-02T08:03:33.095Z,6.05
2017-12-02T08:04:33.114Z,6.02
2017-12-02T08:05:33.141Z,6.04
2017-12-02T08:06:33.139Z,5.99
2017-12-02T08:07:32.883Z,6.08
2017-12-02T08:08:33.152Z,6.01
2017-12-02T08:09:33.168Z,6.01
2017-12-02T08:10:33.176Z,6.01
2017-12-02T08:11:33.199Z,6.04
2017-12-02T08:12:33.208Z,6.05
2017-12-02T08:13:33.208Z,6.19
2017-12-02T08:14:32.952Z,6.08
2017-12-02T08:15:33.239Z,6.09
2017-12-02T08:16:33.129Z,6.14
2017-12-02T08:17:33.258Z,6.11
2017-12-02T08:18:33.322Z,6.16
2017-12-02T08:19:33.013Z,6.19
2017-12-02T08:20:33.030Z,6.24
2017-12-02T08:21:33.300Z,6.16
2017-12-02T08:22:33.311Z,6.28
2017-12-02T08:23:33.320Z,6.26
2017-12-02T08:24:33.338Z,6.26
2017-12-02T08:25:33.380Z,6.24
2017-12-02T08:26:33.088Z,6.36
2017-12-02T08:27:33.380Z,6.31
2017-12-02T08:28:33.380Z,6.22
2017-12-02T08:29:33.386Z,6.27
2017-12-02T08:30:33.402Z,6.24
2017-12-02T08:31:33.415Z,6.36
2017-12-02T08:32:33.420Z,6.36
2017-12-02T08:33:32.900Z,6.31
2017-12-02T08:34:33.445Z,6.3
2017-12-02T08:36:56.898Z,6.39
2017-12-02T08:37:56.897Z,6.31
2017-12-02T08:38:56.915Z,6.45
2017-12-02T08:39:56.934Z,6.44
2017-12-02T08:40:56.933Z,6.45
2017-12-02T08:41:56.957Z,6.49
2017-12-02T08:42:56.955Z,6.46
2017-12-02T08:43:56.973Z,6.57
2017-12-02T08:44:56.986Z,6.54
2017-12-02T08:45:56.998Z,6.56
2017-12-02T08:46:56.473Z,6.48
2017-12-02T08:47:57.031Z,6.54
2017-12-02T08:48:57.027Z,6.51
2017-12-02T08:49:56.769Z,6.64
2017-12-02T08:50:57.050Z,6.6
2017-12-02T08:51:57.070Z,6.49
2017-12-02T08:52:57.070Z,6.56
2017-12-02T08:53:56.818Z,6.63
2017-12-02T08:54:57.098Z,6.62
2017-12-02T08:55:57.105Z,6.64
2017-12-02T08:56:57.116Z,6.72
2017-12-02T08:57:57.177Z,6.62
2017-12-02T08:58:56.878Z,6.67
2017-12-02T08:59:57.147Z,6.64
2017-12-02T09:00:57.164Z,6.64
2017-12-02T09:01:57.177Z,6.62
2017-12-02T09:02:57.191Z,6.6
2017-12-02T09:03:56.928Z,6.59
2017-12-02T09:04:57.211Z,6.6
2017-12-02T09:05:56.951Z,6.7
2017-12-02T09:06:56.971Z,6.67
2017-12-02T09:07:57.355Z,6.74
2017-12-02T09:08:57.250Z,6.75
2017-12-02T09:09:57.273Z,6.81
2017-12-02T09:10:57.270Z,6.75
2017-12-02T09:11:57.287Z,6.84
2017-12-02T09:12:57.301Z,6.81
2017-12-02T09:13:57.305Z,6.81
2017-12-02T09:14:57.328Z,6.92
2017-12-02T09:15:57.337Z,6.87
2017-12-02T09:16:57.079Z,6.93
2017-12-02T09:17:57.085Z,6.93
2017-12-02T09:18:57.104Z,7
2017-12-02T09:19:57.376Z,6.89
2017-12-02T09:20:57.123Z,6.96
2017-12-02T09:21:57.398Z,7.03
2017-12-02T09:22:57.428Z,7.06
2017-12-02T09:23:57.435Z,7.03
2017-12-02T09:24:57.439Z,7.05
2017-12-02T09:25:57.182Z,7.03
2017-12-02T09:26:57.465Z,7.07
2017-12-02T09:27:57.200Z,7.17
2017-12-02T09:28:57.859Z,7.2
2017-12-02T09:29:57.224Z,7.2
2017-12-02T09:30:57.520Z,7.2
2017-12-02T09:31:57.248Z,7.18
2017-12-02T09:32:57.255Z,7.18
2017-12-02T09:33:57.540Z,7.18
2017-12-02T09:34:57.585Z,7.21
2017-12-02T09:35:57.563Z,7.18
2017-12-02T09:36:57.307Z,7.25
2017-12-02T09:37:57.315Z,7.24
2017-12-02T09:38:57.332Z,7.33
2017-12-02T09:39:57.618Z,7.28
2017-12-02T09:40:57.619Z,7.25
2017-12-02T09:41:57.370Z,7.38
2017-12-02T09:42:57.379Z,7.36
2017-12-02T09:43:57.397Z,7.39
2017-12-02T09:44:57.743Z,7.43
2017-12-02T09:45:57.684Z,7.35
2017-12-02T09:46:57.695Z,7.38
2017-12-02T09:47:57.709Z,7.48
2017-12-02T09:48:57.715Z,7.45
2017-12-02T09:49:57.727Z,7.48
2017-12-02T09:50:57.746Z,7.39
2017-12-02T09:51:57.754Z,7.45
2017-12-02T09:52:57.763Z,7.39
2017-12-02T09:53:57.777Z,7.43
2017-12-02T09:54:57.520Z,7.45
2017-12-02T09:55:57.805Z,7.42
2017-12-02T09:56:57.542Z,7.45
2017-12-02T09:57:57.819Z,7.39
2017-12-02T09:58:57.308Z,7.47
2017-12-02T09:59:57.847Z,7.45
2017-12-02T10:00:57.863Z,7.38
2017-12-02T10:01:57.875Z,7.39
2017-12-02T10:02:57.890Z,7.39
2017-12-02T10:03:57.946Z,7.5
2017-12-02T10:04:57.913Z,7.39
2017-12-02T10:05:57.926Z,7.43
2017-12-02T10:06:58.002Z,7.4
2017-12-02T10:07:57.675Z,7.45
2017-12-02T10:08:57.961Z,7.43
2017-12-02T10:09:57.697Z,7.38
2017-12-02T10:10:57.982Z,7.42
2017-12-02T10:11:57.995Z,7.39
2017-12-02T10:12:58.015Z,7.42
2017-12-02T10:13:57.748Z,7.45
2017-12-02T10:14:57.761Z,7.39
2017-12-02T10:15:58.057Z,7.48
2017-12-02T10:16:57.785Z,7.45
2017-12-02T10:17:58.076Z,7.48
2017-12-02T10:18:57.813Z,7.42
2017-12-02T10:19:58.094Z,7.45
2017-12-02T10:20:57.564Z,7.51
2017-12-02T10:21:57.852Z,7.51
2017-12-02T10:22:57.627Z,7.51
2017-12-02T10:23:58.138Z,7.53
2017-12-02T10:24:58.156Z,7.53
2017-12-02T10:25:58.223Z,7.53
2017-12-02T10:26:58.173Z,7.5
2017-12-02T10:27:58.185Z,7.53
2017-12-02T10:28:58.198Z,7.5
2017-12-02T10:29:58.204Z,7.57
2017-12-02T10:30:58.227Z,7.53
2017-12-02T10:31:58.233Z,7.56
2017-12-02T10:32:58.249Z,7.57
2017-12-02T10:33:57.722Z,7.61
2017-12-02T10:34:57.738Z,7.58
2017-12-02T10:35:58.290Z,7.63
2017-12-02T10:36:58.030Z,7.67
2017-12-02T10:37:58.039Z,7.6
2017-12-02T10:38:57.789Z,7.57
2017-12-02T10:39:58.069Z,7.61
2017-12-02T10:40:58.076Z,7.57
2017-12-02T10:41:58.360Z,7.69
2017-12-02T10:42:58.371Z,7.66
2017-12-02T10:43:58.114Z,7.66
2017-12-02T10:44:58.392Z,7.61
2017-12-02T10:45:58.139Z,7.54
2017-12-02T10:46:58.153Z,7.6
2017-12-02T10:47:58.434Z,7.58
2017-12-02T10:48:58.445Z,7.61
2017-12-02T10:49:58.191Z,7.6
2017-12-02T10:50:58.479Z,7.66
2017-12-02T10:51:58.479Z,7.66
2017-12-02T10:52:58.488Z,7.69
2017-12-02T10:53:57.987Z,7.67
2017-12-02T10:54:58.522Z,7.7
2017-12-02T10:55:58.532Z,7.61
2017-12-02T10:56:58.276Z,7.63
2017-12-02T10:57:58.286Z,7.57
2017-12-02T10:58:58.301Z,7.66
2017-12-02T10:59:58.309Z,7.67
2017-12-02T11:00:58.595Z,7.73
2017-12-02T11:01:58.336Z,7.72
2017-12-02T11:02:58.349Z,7.7
2017-12-02T11:03:58.629Z,7.76
2017-12-02T11:04:58.642Z,7.72
2017-12-02T11:05:58.649Z,7.73
2017-12-02T11:06:58.397Z,7.8
2017-12-02T11:07:58.685Z,7.79
2017-12-02T11:08:58.158Z,7.82
2017-12-02T11:09:58.451Z,7.79
2017-12-02T11:10:58.468Z,7.79
2017-12-02T11:11:58.732Z,7.88
2017-12-02T11:12:58.741Z,7.9
2017-12-02T11:13:58.758Z,7.95
2017-12-02T11:14:58.490Z,7.95
2017-12-02T11:15:58.242Z,7.93
2017-12-02T11:16:58.529Z,7.98
2017-12-02T11:17:58.532Z,8.03
2017-12-02T11:18:58.815Z,8.01
2017-12-02T11:19:58.669Z,7.91
2017-12-02T11:20:58.845Z,7.95
2017-12-02T11:21:58.585Z,8.01
2017-12-02T11:22:58.870Z,8
2017-12-02T11:23:58.602Z,8.05
2017-12-02T11:24:58.891Z,7.98
2017-12-02T11:25:58.637Z,8.09
2017-12-02T11:26:58.923Z,8.05
2017-12-02T11:27:58.923Z,8
2017-12-02T11:28:58.941Z,8.03
2017-12-02T11:29:58.955Z,8.16
2017-12-02T11:30:58.699Z,8.12
2017-12-02T11:31:58.714Z,8.12
2017-12-02T11:32:58.985Z,8.01
2017-12-02T11:33:58.733Z,8.05
2017-12-02T11:34:58.749Z,8.05
2017-12-02T11:35:59.033Z,8.08
2017-12-02T11:36:59.032Z,8.09
2017-12-02T11:37:58.782Z,8.08
2017-12-02T11:38:59.065Z,8.06
2017-12-02T11:39:58.806Z,8.03
2017-12-02T11:40:59.084Z,8.1
2017-12-02T11:41:59.096Z,8.13
2017-12-02T11:42:59.126Z,8.1
2017-12-02T11:43:58.853Z,8.15
2017-12-02T11:44:58.609Z,8.13
2017-12-02T11:45:59.149Z,8.18
2017-12-02T11:46:59.163Z,8.19
2017-12-02T11:47:58.909Z,8.16
2017-12-02T11:48:59.195Z,8.23
2017-12-02T11:49:58.668Z,8.27
2017-12-02T11:50:58.952Z,8.19
2017-12-02T11:51:59.234Z,8.2
2017-12-02T11:52:58.973Z,8.26
2017-12-02T11:53:59.250Z,8.24
2017-12-02T11:54:59.268Z,8.27
2017-12-02T11:55:59.274Z,8.27
2017-12-02T11:56:59.018Z,8.16
2017-12-02T11:57:59.046Z,8.18
2017-12-02T11:58:59.320Z,8.2
2017-12-02T11:59:59.328Z,8.33
2017-12-02T12:00:59.348Z,8.36
2017-12-02T12:01:59.354Z,8.28
2017-12-02T12:02:58.833Z,8.2
2017-12-02T12:03:59.372Z,8.33
2017-12-02T12:04:59.395Z,8.28
2017-12-02T12:05:59.139Z,8.33
2017-12-02T12:06:59.171Z,8.34
2017-12-02T12:07:59.427Z,8.36
2017-12-02T12:08:59.446Z,8.24
2017-12-02T12:09:59.461Z,8.27
2017-12-02T12:10:59.679Z,8.24
2017-12-02T12:11:58.947Z,8.33
2017-12-02T12:12:59.226Z,8.27
2017-12-02T12:13:59.504Z,8.34
2017-12-02T12:14:59.516Z,8.28
2017-12-02T12:15:59.532Z,8.33
2017-12-02T12:16:59.009Z,8.28
2017-12-02T12:17:59.344Z,8.2
2017-12-02T12:18:59.341Z,8.33
2017-12-02T12:19:59.585Z,8.34
2017-12-02T12:20:59.066Z,8.27
2017-12-02T12:21:59.604Z,8.26
2017-12-02T12:22:59.087Z,8.33
2017-12-02T12:23:59.640Z,8.31
2017-12-02T12:24:59.670Z,8.33
2017-12-02T12:25:59.397Z,8.36
2017-12-02T12:26:59.675Z,8.31
2017-12-02T12:27:59.729Z,8.33
2017-12-02T12:28:59.694Z,8.33
2017-12-02T12:29:59.444Z,8.36
2017-12-02T12:30:59.726Z,8.31
2017-12-02T12:31:59.471Z,8.38
2017-12-02T12:32:59.749Z,8.38
2017-12-02T12:33:59.768Z,8.33
2017-12-02T12:34:59.774Z,8.36
2017-12-02T12:35:59.782Z,8.37
2017-12-02T12:36:59.797Z,8.34
2017-12-02T12:37:59.806Z,8.26
2017-12-02T12:38:59.829Z,8.31
2017-12-02T12:39:59.571Z,8.36
2017-12-02T12:40:59.857Z,8.38
2017-12-02T12:41:59.596Z,8.41
2017-12-02T12:42:59.615Z,8.33
2017-12-02T12:43:59.627Z,8.34
2017-12-02T12:44:59.637Z,8.38
2017-12-02T12:45:59.650Z,8.3
2017-12-02T12:46:59.666Z,8.37
2017-12-02T12:47:59.676Z,8.33
2017-12-02T12:48:59.690Z,8.3
2017-12-02T12:49:59.704Z,8.37
2017-12-02T12:50:59.446Z,8.3
2017-12-02T12:51:59.988Z,8.31
2017-12-02T12:53:00.072Z,8.38
2017-12-02T12:53:59.757Z,8.31
2017-12-02T12:55:00.036Z,8.28
2017-12-02T12:55:59.783Z,8.2
2017-12-02T12:57:00.058Z,8.16
2017-12-02T12:57:59.803Z,8.24
2017-12-02T12:59:00.140Z,8.27
2017-12-02T13:00:00.098Z,8.24
2017-12-02T13:00:59.848Z,8.24
2017-12-02T13:02:00.122Z,8.23
2017-12-02T13:03:00.139Z,8.27
2017-12-02T13:04:00.147Z,8.23
2017-12-02T13:05:00.158Z,8.19
2017-12-02T13:05:59.899Z,8.27
2017-12-02T13:07:00.187Z,8.19
2017-12-02T13:08:00.205Z,8.19
2017-12-02T13:08:59.952Z,8.2
2017-12-02T13:10:00.222Z,8.19
2017-12-02T13:10:59.719Z,8.26
2017-12-02T13:12:00.291Z,8.23
2017-12-02T13:12:59.996Z,8.24
2017-12-02T13:14:00.034Z,8.24
2017-12-02T13:15:00.289Z,8.24
2017-12-02T13:16:00.301Z,8.18
2017-12-02T13:16:59.777Z,8.2
2017-12-02T13:18:00.059Z,8.24
2017-12-02T13:19:00.068Z,8.16
2017-12-02T13:20:00.364Z,8.19
2017-12-02T13:21:00.388Z,8.23
2017-12-02T13:22:00.114Z,8.16
2017-12-02T13:23:00.396Z,8.2